Aviation Digital Data Service (ADDS)

Output produced by METARs form (1310 UTC 19 January 2018)
found at http://aviationweather.gov/adds/metars/
 
KARA 191253Z 08003KT 10SM OVC085 01/M03 A3037 RMK AO2 SLP282 T00111028